sensor_id;sensor_type;location;lat;lon;timestamp;temperature;humidity
4564;DHT22;2294;51.818;8.484;2023-04-25T00:02:04;7.90;99.90
4564;DHT22;2294;51.818;8.484;2023-04-25T00:04:32;7.90;99.90
4564;DHT22;2294;51.818;8.484;2023-04-25T00:06:59;8.00;99.90
4564;DHT22;2294;51.818;8.484;2023-04-25T00:09:27;7.90;99.90
4564;DHT22;2294;51.818;8.484;2023-04-25T00:11:54;7.90;99.90
4564;DHT22;2294;51.818;8.484;2023-04-25T00:14:21;8.00;99.90
4564;DHT22;2294;51.818;8.484;2023-04-25T00:16:48;8.00;99.90
4564;DHT22;2294;51.818;8.484;2023-04-25T00:19:17;8.00;99.90
4564;DHT22;2294;51.818;8.484;2023-04-25T00:24:12;8.00;99.90
4564;DHT22;2294;51.818;8.484;2023-04-25T00:26:39;7.80;99.90
4564;DHT22;2294;51.818;8.484;2023-04-25T00:29:06;7.90;99.90
4564;DHT22;2294;51.818;8.484;2023-04-25T00:31:33;7.90;99.90
4564;DHT22;2294;51.818;8.484;2023-04-25T00:34:00;8.00;99.90
4564;DHT22;2294;51.818;8.484;2023-04-25T00:36:27;7.90;99.90
4564;DHT22;2294;51.818;8.484;2023-04-25T00:38:55;7.90;99.90
4564;DHT22;2294;51.818;8.484;2023-04-25T00:41:22;8.00;99.90
4564;DHT22;2294;51.818;8.484;2023-04-25T00:43:51;7.90;99.90
4564;DHT22;2294;51.818;8.484;2023-04-25T00:46:18;8.00;99.90
4564;DHT22;2294;51.818;8.484;2023-04-25T00:48:45;8.00;99.90
4564;DHT22;2294;51.818;8.484;2023-04-25T00:51:16;8.00;99.90
4564;DHT22;2294;51.818;8.484;2023-04-25T00:53:43;7.90;99.90
4564;DHT22;2294;51.818;8.484;2023-04-25T00:56:12;7.90;99.90
4564;DHT22;2294;51.818;8.484;2023-04-25T00:58:40;8.00;99.90
4564;DHT22;2294;51.818;8.484;2023-04-25T01:01:08;8.00;99.90
4564;DHT22;2294;51.818;8.484;2023-04-25T01:03:37;8.20;99.90
4564;DHT22;2294;51.818;8.484;2023-04-25T01:06:07;8.20;99.90
4564;DHT22;2294;51.818;8.484;2023-04-25T01:08:34;8.20;99.90
4564;DHT22;2294;51.818;8.484;2023-04-25T01:11:01;8.20;99.90
4564;DHT22;2294;51.818;8.484;2023-04-25T01:13:29;8.20;99.90
4564;DHT22;2294;51.818;8.484;2023-04-25T01:15:57;8.20;99.90
4564;DHT22;2294;51.818;8.484;2023-04-25T01:18:24;8.30;99.90
4564;DHT22;2294;51.818;8.484;2023-04-25T01:20:52;8.30;99.90
4564;DHT22;2294;51.818;8.484;2023-04-25T01:23:21;8.30;99.90
4564;DHT22;2294;51.818;8.484;2023-04-25T01:25:48;8.40;99.90
4564;DHT22;2294;51.818;8.484;2023-04-25T01:28:16;8.40;99.90
4564;DHT22;2294;51.818;8.484;2023-04-25T01:30:43;8.40;99.90
4564;DHT22;2294;51.818;8.484;2023-04-25T01:33:11;8.40;99.90
4564;DHT22;2294;51.818;8.484;2023-04-25T01:35:40;8.30;99.90
4564;DHT22;2294;51.818;8.484;2023-04-25T01:38:07;8.40;99.90
4564;DHT22;2294;51.818;8.484;2023-04-25T01:40:39;8.40;99.90
4564;DHT22;2294;51.818;8.484;2023-04-25T01:43:07;8.40;99.90
4564;DHT22;2294;51.818;8.484;2023-04-25T01:45:36;8.50;99.90
4564;DHT22;2294;51.818;8.484;2023-04-25T01:48:05;8.60;99.90
4564;DHT22;2294;51.818;8.484;2023-04-25T01:50:33;8.70;99.90
4564;DHT22;2294;51.818;8.484;2023-04-25T01:53:00;8.70;99.90
4564;DHT22;2294;51.818;8.484;2023-04-25T01:55:28;8.70;99.90
4564;DHT22;2294;51.818;8.484;2023-04-25T01:57:56;8.70;99.90
4564;DHT22;2294;51.818;8.484;2023-04-25T02:00:24;8.70;99.90
4564;DHT22;2294;51.818;8.484;2023-04-25T02:02:50;8.60;99.90
4564;DHT22;2294;51.818;8.484;2023-04-25T02:05:19;8.70;99.90
4564;DHT22;2294;51.818;8.484;2023-04-25T02:07:48;8.90;99.90
4564;DHT22;2294;51.818;8.484;2023-04-25T02:10:15;9.00;99.90
4564;DHT22;2294;51.818;8.484;2023-04-25T02:12:41;9.00;99.90
4564;DHT22;2294;51.818;8.484;2023-04-25T02:15:10;9.00;99.90
4564;DHT22;2294;51.818;8.484;2023-04-25T02:17:37;9.10;99.90
4564;DHT22;2294;51.818;8.484;2023-04-25T02:20:05;9.30;99.90
4564;DHT22;2294;51.818;8.484;2023-04-25T02:22:32;9.30;99.90
4564;DHT22;2294;51.818;8.484;2023-04-25T02:25:01;9.20;99.90
4564;DHT22;2294;51.818;8.484;2023-04-25T02:27:30;9.30;99.90
4564;DHT22;2294;51.818;8.484;2023-04-25T02:29:57;9.50;99.90
4564;DHT22;2294;51.818;8.484;2023-04-25T02:32:25;9.60;99.90
4564;DHT22;2294;51.818;8.484;2023-04-25T02:34:52;9.70;99.90
4564;DHT22;2294;51.818;8.484;2023-04-25T02:37:19;9.70;99.90
4564;DHT22;2294;51.818;8.484;2023-04-25T02:39:46;9.70;99.90
4564;DHT22;2294;51.818;8.484;2023-04-25T02:42:13;9.70;99.90
4564;DHT22;2294;51.818;8.484;2023-04-25T02:44:39;9.70;99.90
4564;DHT22;2294;51.818;8.484;2023-04-25T02:47:06;9.90;99.90
4564;DHT22;2294;51.818;8.484;2023-04-25T02:49:35;9.90;99.90
4564;DHT22;2294;51.818;8.484;2023-04-25T02:52:01;9.80;99.90
4564;DHT22;2294;51.818;8.484;2023-04-25T02:54:28;9.80;99.90
4564;DHT22;2294;51.818;8.484;2023-04-25T02:56:55;10.00;99.90
4564;DHT22;2294;51.818;8.484;2023-04-25T02:59:22;10.10;99.90
4564;DHT22;2294;51.818;8.484;2023-04-25T03:01:49;10.10;99.90
4564;DHT22;2294;51.818;8.484;2023-04-25T03:04:16;10.00;99.90
4564;DHT22;2294;51.818;8.484;2023-04-25T03:06:45;10.20;99.90
4564;DHT22;2294;51.818;8.484;2023-04-25T03:11:40;10.30;99.90
4564;DHT22;2294;51.818;8.484;2023-04-25T03:14:06;10.50;99.90
4564;DHT22;2294;51.818;8.484;2023-04-25T03:16:33;10.50;99.90
4564;DHT22;2294;51.818;8.484;2023-04-25T03:19:00;10.60;99.90
4564;DHT22;2294;51.818;8.484;2023-04-25T03:21:27;10.60;99.90
4564;DHT22;2294;51.818;8.484;2023-04-25T03:23:56;10.60;99.90
4564;DHT22;2294;51.818;8.484;2023-04-25T03:26:23;10.70;99.90
4564;DHT22;2294;51.818;8.484;2023-04-25T03:28:50;10.80;99.90
4564;DHT22;2294;51.818;8.484;2023-04-25T03:31:16;10.90;99.90
4564;DHT22;2294;51.818;8.484;2023-04-25T03:33:43;10.90;99.90
4564;DHT22;2294;51.818;8.484;2023-04-25T03:36:10;11.10;99.90
4564;DHT22;2294;51.818;8.484;2023-04-25T03:38:37;11.00;99.90
4564;DHT22;2294;51.818;8.484;2023-04-25T03:41:05;11.20;99.90
4564;DHT22;2294;51.818;8.484;2023-04-25T03:43:32;11.20;99.90
4564;DHT22;2294;51.818;8.484;2023-04-25T03:46:00;11.10;99.90
4564;DHT22;2294;51.818;8.484;2023-04-25T03:48:27;11.20;99.90
4564;DHT22;2294;51.818;8.484;2023-04-25T03:50:55;11.30;99.90
4564;DHT22;2294;51.818;8.484;2023-04-25T03:53:21;11.30;99.90
4564;DHT22;2294;51.818;8.484;2023-04-25T03:55:48;11.40;99.90
4564;DHT22;2294;51.818;8.484;2023-04-25T03:58:16;11.40;99.90
4564;DHT22;2294;51.818;8.484;2023-04-25T04:00:43;11.30;99.90
4564;DHT22;2294;51.818;8.484;2023-04-25T04:03:10;11.30;99.90
4564;DHT22;2294;51.818;8.484;2023-04-25T04:05:37;11.30;99.90
4564;DHT22;2294;51.818;8.484;2023-04-25T04:08:06;11.30;99.90
4564;DHT22;2294;51.818;8.484;2023-04-25T04:10:33;11.30;99.90
4564;DHT22;2294;51.818;8.484;2023-04-25T04:13:00;11.20;99.90
4564;DHT22;2294;51.818;8.484;2023-04-25T04:15:29;11.20;99.90
4564;DHT22;2294;51.818;8.484;2023-04-25T04:17:58;11.20;99.90
4564;DHT22;2294;51.818;8.484;2023-04-25T04:20:28;11.40;99.90
4564;DHT22;2294;51.818;8.484;2023-04-25T04:22:55;11.30;99.90
4564;DHT22;2294;51.818;8.484;2023-04-25T04:25:22;11.20;99.90
4564;DHT22;2294;51.818;8.484;2023-04-25T04:27:50;11.30;99.90
4564;DHT22;2294;51.818;8.484;2023-04-25T04:30:20;11.20;99.90
4564;DHT22;2294;51.818;8.484;2023-04-25T04:32:50;11.20;99.90
4564;DHT22;2294;51.818;8.484;2023-04-25T04:35:17;11.10;99.90
4564;DHT22;2294;51.818;8.484;2023-04-25T04:37:44;11.20;99.90
4564;DHT22;2294;51.818;8.484;2023-04-25T04:40:12;11.10;99.90
4564;DHT22;2294;51.818;8.484;2023-04-25T04:42:41;11.00;99.90
4564;DHT22;2294;51.818;8.484;2023-04-25T04:45:09;10.80;99.90
4564;DHT22;2294;51.818;8.484;2023-04-25T04:47:38;10.70;99.90
4564;DHT22;2294;51.818;8.484;2023-04-25T04:50:08;10.70;99.90
4564;DHT22;2294;51.818;8.484;2023-04-25T04:52:36;10.70;99.90
4564;DHT22;2294;51.818;8.484;2023-04-25T04:55:03;10.70;99.90
4564;DHT22;2294;51.818;8.484;2023-04-25T04:57:31;10.70;99.90
4564;DHT22;2294;51.818;8.484;2023-04-25T04:59:58;10.60;99.90
4564;DHT22;2294;51.818;8.484;2023-04-25T05:02:25;10.60;99.90
4564;DHT22;2294;51.818;8.484;2023-04-25T05:04:52;10.40;99.90
4564;DHT22;2294;51.818;8.484;2023-04-25T05:07:21;10.40;99.90
4564;DHT22;2294;51.818;8.484;2023-04-25T05:09:48;10.40;99.90
4564;DHT22;2294;51.818;8.484;2023-04-25T05:12:14;10.50;99.90
4564;DHT22;2294;51.818;8.484;2023-04-25T05:14:41;10.20;99.90
4564;DHT22;2294;51.818;8.484;2023-04-25T05:17:08;10.00;99.90
4564;DHT22;2294;51.818;8.484;2023-04-25T05:19:35;10.10;99.90
4564;DHT22;2294;51.818;8.484;2023-04-25T05:22:02;10.20;99.90
4564;DHT22;2294;51.818;8.484;2023-04-25T05:24:30;10.10;99.90
4564;DHT22;2294;51.818;8.484;2023-04-25T05:26:57;10.20;99.90
4564;DHT22;2294;51.818;8.484;2023-04-25T05:29:24;10.00;99.90
4564;DHT22;2294;51.818;8.484;2023-04-25T05:31:51;9.80;99.90
4564;DHT22;2294;51.818;8.484;2023-04-25T05:34:18;9.90;99.90
4564;DHT22;2294;51.818;8.484;2023-04-25T05:36:45;9.80;99.90
4564;DHT22;2294;51.818;8.484;2023-04-25T05:39:13;9.90;99.90
4564;DHT22;2294;51.818;8.484;2023-04-25T05:41:42;9.60;99.90
4564;DHT22;2294;51.818;8.484;2023-04-25T05:44:09;9.70;99.90
4564;DHT22;2294;51.818;8.484;2023-04-25T05:46:36;9.50;99.90
4564;DHT22;2294;51.818;8.484;2023-04-25T05:49:03;9.80;99.90
4564;DHT22;2294;51.818;8.484;2023-04-25T05:51:29;9.50;99.90
4564;DHT22;2294;51.818;8.484;2023-04-25T05:53:57;9.60;99.90
4564;DHT22;2294;51.818;8.484;2023-04-25T05:56:23;9.60;99.90
4564;DHT22;2294;51.818;8.484;2023-04-25T05:58:52;9.70;99.90
4564;DHT22;2294;51.818;8.484;2023-04-25T06:01:21;9.70;99.90
4564;DHT22;2294;51.818;8.484;2023-04-25T06:03:48;9.30;99.90
4564;DHT22;2294;51.818;8.484;2023-04-25T06:06:15;9.40;99.90
4564;DHT22;2294;51.818;8.484;2023-04-25T06:08:41;9.40;99.90
4564;DHT22;2294;51.818;8.484;2023-04-25T06:11:08;9.50;99.90
4564;DHT22;2294;51.818;8.484;2023-04-25T06:13:35;9.20;99.90
4564;DHT22;2294;51.818;8.484;2023-04-25T06:16:04;9.30;99.90
4564;DHT22;2294;51.818;8.484;2023-04-25T06:18:31;9.50;99.90
4564;DHT22;2294;51.818;8.484;2023-04-25T06:20:58;9.50;99.90
4564;DHT22;2294;51.818;8.484;2023-04-25T06:23:25;9.30;99.90
4564;DHT22;2294;51.818;8.484;2023-04-25T06:25:52;9.20;99.90
4564;DHT22;2294;51.818;8.484;2023-04-25T06:28:19;8.90;99.90
4564;DHT22;2294;51.818;8.484;2023-04-25T06:30:47;8.80;99.90
4564;DHT22;2294;51.818;8.484;2023-04-25T06:33:16;8.60;99.90
4564;DHT22;2294;51.818;8.484;2023-04-25T06:35:43;8.90;99.90
4564;DHT22;2294;51.818;8.484;2023-04-25T06:38:10;8.90;99.90
4564;DHT22;2294;51.818;8.484;2023-04-25T06:40:36;8.70;99.90
4564;DHT22;2294;51.818;8.484;2023-04-25T06:43:03;8.80;99.90
4564;DHT22;2294;51.818;8.484;2023-04-25T06:45:30;8.60;99.90
4564;DHT22;2294;51.818;8.484;2023-04-25T06:47:57;8.70;99.90
4564;DHT22;2294;51.818;8.484;2023-04-25T06:50:26;8.30;99.90
4564;DHT22;2294;51.818;8.484;2023-04-25T06:52:52;8.30;99.90
4564;DHT22;2294;51.818;8.484;2023-04-25T06:55:19;8.50;99.90
4564;DHT22;2294;51.818;8.484;2023-04-25T06:57:46;8.40;99.90
4564;DHT22;2294;51.818;8.484;2023-04-25T07:00:14;8.10;99.90
4564;DHT22;2294;51.818;8.484;2023-04-25T07:02:41;8.20;99.90
4564;DHT22;2294;51.818;8.484;2023-04-25T07:05:09;7.90;99.90
4564;DHT22;2294;51.818;8.484;2023-04-25T07:07:37;7.90;99.90
4564;DHT22;2294;51.818;8.484;2023-04-25T07:10:05;8.40;99.90
4564;DHT22;2294;51.818;8.484;2023-04-25T07:12:32;8.00;99.90
4564;DHT22;2294;51.818;8.484;2023-04-25T07:14:58;8.40;99.90
4564;DHT22;2294;51.818;8.484;2023-04-25T07:17:31;7.90;99.90
4564;DHT22;2294;51.818;8.484;2023-04-25T07:19:58;8.00;99.90
4564;DHT22;2294;51.818;8.484;2023-04-25T07:22:25;8.00;99.90
4564;DHT22;2294;51.818;8.484;2023-04-25T07:24:54;8.40;99.90
4564;DHT22;2294;51.818;8.484;2023-04-25T07:27:21;8.00;99.90
4564;DHT22;2294;51.818;8.484;2023-04-25T07:29:48;7.90;99.90
4564;DHT22;2294;51.818;8.484;2023-04-25T07:32:15;8.00;99.90
4564;DHT22;2294;51.818;8.484;2023-04-25T07:34:41;8.00;99.90
4564;DHT22;2294;51.818;8.484;2023-04-25T07:37:08;7.70;99.90
4564;DHT22;2294;51.818;8.484;2023-04-25T07:39:35;7.70;99.90
4564;DHT22;2294;51.818;8.484;2023-04-25T07:42:04;8.10;99.90
4564;DHT22;2294;51.818;8.484;2023-04-25T07:44:33;7.80;99.90
4564;DHT22;2294;51.818;8.484;2023-04-25T07:47:04;7.80;99.90
4564;DHT22;2294;51.818;8.484;2023-04-25T07:49:32;7.60;99.90
4564;DHT22;2294;51.818;8.484;2023-04-25T07:52:00;7.80;99.90
4564;DHT22;2294;51.818;8.484;2023-04-25T07:54:27;8.10;99.90
4564;DHT22;2294;51.818;8.484;2023-04-25T07:56:54;7.70;99.90
4564;DHT22;2294;51.818;8.484;2023-04-25T07:59:22;7.80;99.90
4564;DHT22;2294;51.818;8.484;2023-04-25T08:01:49;7.80;99.90
4564;DHT22;2294;51.818;8.484;2023-04-25T08:04:16;7.90;99.90
4564;DHT22;2294;51.818;8.484;2023-04-25T08:06:43;8.20;99.90
4564;DHT22;2294;51.818;8.484;2023-04-25T08:09:11;8.10;99.90
4564;DHT22;2294;51.818;8.484;2023-04-25T08:11:38;8.40;99.90
4564;DHT22;2294;51.818;8.484;2023-04-25T08:14:05;7.80;99.90
4564;DHT22;2294;51.818;8.484;2023-04-25T08:16:33;8.20;99.90
4564;DHT22;2294;51.818;8.484;2023-04-25T08:19:00;8.30;99.90
4564;DHT22;2294;51.818;8.484;2023-04-25T08:21:27;7.90;99.90
4564;DHT22;2294;51.818;8.484;2023-04-25T08:23:54;7.80;99.90
4564;DHT22;2294;51.818;8.484;2023-04-25T08:26:22;7.80;99.90
4564;DHT22;2294;51.818;8.484;2023-04-25T08:28:49;8.10;99.90
4564;DHT22;2294;51.818;8.484;2023-04-25T08:31:16;7.90;99.90
4564;DHT22;2294;51.818;8.484;2023-04-25T08:33:44;7.90;99.90
4564;DHT22;2294;51.818;8.484;2023-04-25T08:36:11;7.70;99.90
4564;DHT22;2294;51.818;8.484;2023-04-25T08:38:38;7.60;99.90
4564;DHT22;2294;51.818;8.484;2023-04-25T08:41:06;7.50;99.90
4564;DHT22;2294;51.818;8.484;2023-04-25T08:43:34;8.00;99.90
4564;DHT22;2294;51.818;8.484;2023-04-25T08:46:02;7.80;99.90
4564;DHT22;2294;51.818;8.484;2023-04-25T08:48:29;8.20;99.90
4564;DHT22;2294;51.818;8.484;2023-04-25T08:51:01;8.20;99.90
4564;DHT22;2294;51.818;8.484;2023-04-25T08:53:32;8.50;99.90
4564;DHT22;2294;51.818;8.484;2023-04-25T08:56:01;8.40;99.90
4564;DHT22;2294;51.818;8.484;2023-04-25T08:58:28;8.40;99.90
4564;DHT22;2294;51.818;8.484;2023-04-25T09:00:55;8.30;99.90
4564;DHT22;2294;51.818;8.484;2023-04-25T09:03:22;8.70;99.90
4564;DHT22;2294;51.818;8.484;2023-04-25T09:05:49;8.10;99.90
4564;DHT22;2294;51.818;8.484;2023-04-25T09:08:18;8.30;99.90
4564;DHT22;2294;51.818;8.484;2023-04-25T09:10:45;8.60;99.90
4564;DHT22;2294;51.818;8.484;2023-04-25T09:13:14;8.40;99.90
4564;DHT22;2294;51.818;8.484;2023-04-25T09:15:49;8.70;99.90
4564;DHT22;2294;51.818;8.484;2023-04-25T09:18:23;8.90;99.90
4564;DHT22;2294;51.818;8.484;2023-04-25T09:20:52;8.80;99.90
4564;DHT22;2294;51.818;8.484;2023-04-25T09:23:21;8.20;99.90
4564;DHT22;2294;51.818;8.484;2023-04-25T09:25:50;8.00;99.90
4564;DHT22;2294;51.818;8.484;2023-04-25T09:28:23;8.00;99.90
4564;DHT22;2294;51.818;8.484;2023-04-25T09:30:54;7.90;99.90
4564;DHT22;2294;51.818;8.484;2023-04-25T09:33:27;8.40;99.90
4564;DHT22;2294;51.818;8.484;2023-04-25T09:36:01;8.30;99.90
4564;DHT22;2294;51.818;8.484;2023-04-25T09:38:31;8.90;99.90
4564;DHT22;2294;51.818;8.484;2023-04-25T09:40:58;8.80;99.90
4564;DHT22;2294;51.818;8.484;2023-04-25T09:43:26;8.50;99.90
4564;DHT22;2294;51.818;8.484;2023-04-25T09:45:54;8.90;99.90
4564;DHT22;2294;51.818;8.484;2023-04-25T09:48:25;8.50;99.90
4564;DHT22;2294;51.818;8.484;2023-04-25T09:51:06;8.80;99.90
4564;DHT22;2294;51.818;8.484;2023-04-25T09:53:36;8.70;99.90
4564;DHT22;2294;51.818;8.484;2023-04-25T09:56:04;8.60;99.90
4564;DHT22;2294;51.818;8.484;2023-04-25T09:58:35;8.60;99.90
4564;DHT22;2294;51.818;8.484;2023-04-25T10:01:03;8.50;99.90
4564;DHT22;2294;51.818;8.484;2023-04-25T10:03:32;8.40;99.90
4564;DHT22;2294;51.818;8.484;2023-04-25T10:06:00;8.30;99.90
4564;DHT22;2294;51.818;8.484;2023-04-25T10:08:31;9.10;99.90
4564;DHT22;2294;51.818;8.484;2023-04-25T10:11:01;9.60;99.90
4564;DHT22;2294;51.818;8.484;2023-04-25T10:13:30;9.00;99.90
4564;DHT22;2294;51.818;8.484;2023-04-25T10:15:57;8.90;99.90
4564;DHT22;2294;51.818;8.484;2023-04-25T10:18:25;9.00;99.90
4564;DHT22;2294;51.818;8.484;2023-04-25T10:20:53;8.70;99.90
4564;DHT22;2294;51.818;8.484;2023-04-25T10:23:21;8.40;99.90
4564;DHT22;2294;51.818;8.484;2023-04-25T10:25:48;8.50;99.90
4564;DHT22;2294;51.818;8.484;2023-04-25T10:28:17;8.60;99.90
4564;DHT22;2294;51.818;8.484;2023-04-25T10:30:57;8.60;99.90
4564;DHT22;2294;51.818;8.484;2023-04-25T10:33:32;8.50;99.90
4564;DHT22;2294;51.818;8.484;2023-04-25T10:36:08;8.90;99.90
4564;DHT22;2294;51.818;8.484;2023-04-25T10:38:36;8.70;99.90
4564;DHT22;2294;51.818;8.484;2023-04-25T10:41:04;9.00;99.90
4564;DHT22;2294;51.818;8.484;2023-04-25T10:43:36;9.20;99.90
4564;DHT22;2294;51.818;8.484;2023-04-25T10:46:13;9.10;99.90
4564;DHT22;2294;51.818;8.484;2023-04-25T10:48:45;8.80;99.90
4564;DHT22;2294;51.818;8.484;2023-04-25T10:51:17;9.30;99.90
4564;DHT22;2294;51.818;8.484;2023-04-25T10:53:45;9.40;99.90
4564;DHT22;2294;51.818;8.484;2023-04-25T10:56:16;9.50;99.90
4564;DHT22;2294;51.818;8.484;2023-04-25T10:58:45;9.40;99.90
4564;DHT22;2294;51.818;8.484;2023-04-25T11:01:13;9.30;99.90
4564;DHT22;2294;51.818;8.484;2023-04-25T11:03:41;8.90;99.90
4564;DHT22;2294;51.818;8.484;2023-04-25T11:06:19;9.00;99.90
4564;DHT22;2294;51.818;8.484;2023-04-25T11:08:48;8.60;99.90
4564;DHT22;2294;51.818;8.484;2023-04-25T11:11:16;9.40;99.90
4564;DHT22;2294;51.818;8.484;2023-04-25T11:13:47;9.70;99.90
4564;DHT22;2294;51.818;8.484;2023-04-25T11:16:14;9.70;99.90
4564;DHT22;2294;51.818;8.484;2023-04-25T11:18:41;10.20;99.90
4564;DHT22;2294;51.818;8.484;2023-04-25T11:21:09;9.70;99.90
4564;DHT22;2294;51.818;8.484;2023-04-25T11:23:36;9.80;99.90
4564;DHT22;2294;51.818;8.484;2023-04-25T11:26:03;10.00;99.90
4564;DHT22;2294;51.818;8.484;2023-04-25T11:28:30;9.90;99.90
4564;DHT22;2294;51.818;8.484;2023-04-25T11:30:58;9.10;99.90
4564;DHT22;2294;51.818;8.484;2023-04-25T11:33:26;9.30;99.90
4564;DHT22;2294;51.818;8.484;2023-04-25T11:35:54;9.20;99.90
4564;DHT22;2294;51.818;8.484;2023-04-25T11:38:22;9.30;99.90
4564;DHT22;2294;51.818;8.484;2023-04-25T11:40:50;9.40;99.90
4564;DHT22;2294;51.818;8.484;2023-04-25T11:43:18;9.30;99.90
4564;DHT22;2294;51.818;8.484;2023-04-25T11:45:47;8.90;99.90
4564;DHT22;2294;51.818;8.484;2023-04-25T11:48:15;9.30;99.90
4564;DHT22;2294;51.818;8.484;2023-04-25T11:50:42;9.60;99.90
4564;DHT22;2294;51.818;8.484;2023-04-25T11:53:10;10.00;99.90
4564;DHT22;2294;51.818;8.484;2023-04-25T11:55:37;10.00;99.90
4564;DHT22;2294;51.818;8.484;2023-04-25T11:58:05;9.60;99.90
4564;DHT22;2294;51.818;8.484;2023-04-25T12:00:34;9.50;99.90
4564;DHT22;2294;51.818;8.484;2023-04-25T12:03:01;9.80;99.90
4564;DHT22;2294;51.818;8.484;2023-04-25T12:05:30;9.50;99.90
4564;DHT22;2294;51.818;8.484;2023-04-25T12:08:09;9.70;99.90
4564;DHT22;2294;51.818;8.484;2023-04-25T12:10:37;10.30;99.90
4564;DHT22;2294;51.818;8.484;2023-04-25T12:13:19;10.30;99.90
4564;DHT22;2294;51.818;8.484;2023-04-25T12:15:46;10.40;99.90
4564;DHT22;2294;51.818;8.484;2023-04-25T12:18:13;10.50;99.90
4564;DHT22;2294;51.818;8.484;2023-04-25T12:20:41;10.20;99.90
4564;DHT22;2294;51.818;8.484;2023-04-25T12:23:08;10.60;99.90
4564;DHT22;2294;51.818;8.484;2023-04-25T12:25:37;10.40;99.90
4564;DHT22;2294;51.818;8.484;2023-04-25T12:28:11;10.70;99.90
4564;DHT22;2294;51.818;8.484;2023-04-25T12:30:54;11.20;99.90
4564;DHT22;2294;51.818;8.484;2023-04-25T12:33:21;11.70;99.90
4564;DHT22;2294;51.818;8.484;2023-04-25T12:35:50;11.20;99.90
4564;DHT22;2294;51.818;8.484;2023-04-25T12:38:24;11.30;99.90
4564;DHT22;2294;51.818;8.484;2023-04-25T12:40:51;10.90;99.90
4564;DHT22;2294;51.818;8.484;2023-04-25T12:43:18;11.30;99.90
4564;DHT22;2294;51.818;8.484;2023-04-25T12:45:47;10.70;99.90
4564;DHT22;2294;51.818;8.484;2023-04-25T12:48:14;10.60;99.90
4564;DHT22;2294;51.818;8.484;2023-04-25T12:50:41;10.50;99.90
4564;DHT22;2294;51.818;8.484;2023-04-25T12:53:11;10.30;99.90
4564;DHT22;2294;51.818;8.484;2023-04-25T12:55:38;10.30;99.90
4564;DHT22;2294;51.818;8.484;2023-04-25T12:58:05;10.60;99.90
4564;DHT22;2294;51.818;8.484;2023-04-25T13:00:32;11.00;99.90
4564;DHT22;2294;51.818;8.484;2023-04-25T13:02:59;10.40;99.90
4564;DHT22;2294;51.818;8.484;2023-04-25T13:05:26;10.70;99.90
4564;DHT22;2294;51.818;8.484;2023-04-25T13:07:53;12.00;99.90
4564;DHT22;2294;51.818;8.484;2023-04-25T13:10:22;12.00;99.90
4564;DHT22;2294;51.818;8.484;2023-04-25T13:12:49;10.70;99.90
4564;DHT22;2294;51.818;8.484;2023-04-25T13:15:16;11.20;99.90
4564;DHT22;2294;51.818;8.484;2023-04-25T13:17:43;11.10;99.90
4564;DHT22;2294;51.818;8.484;2023-04-25T13:20:10;10.60;99.90
4564;DHT22;2294;51.818;8.484;2023-04-25T13:22:37;10.90;99.90
4564;DHT22;2294;51.818;8.484;2023-04-25T13:25:06;11.30;99.90
4564;DHT22;2294;51.818;8.484;2023-04-25T13:27:35;12.10;99.90
4564;DHT22;2294;51.818;8.484;2023-04-25T13:30:03;11.70;99.90
4564;DHT22;2294;51.818;8.484;2023-04-25T13:32:33;11.60;99.90
4564;DHT22;2294;51.818;8.484;2023-04-25T13:35:01;11.20;99.90
4564;DHT22;2294;51.818;8.484;2023-04-25T13:37:28;11.00;99.90
4564;DHT22;2294;51.818;8.484;2023-04-25T13:39:58;12.00;99.90
4564;DHT22;2294;51.818;8.484;2023-04-25T13:42:25;11.10;99.90
4564;DHT22;2294;51.818;8.484;2023-04-25T13:44:53;11.60;99.90
4564;DHT22;2294;51.818;8.484;2023-04-25T13:47:20;13.30;99.90
4564;DHT22;2294;51.818;8.484;2023-04-25T13:49:47;13.50;99.90
4564;DHT22;2294;51.818;8.484;2023-04-25T13:52:14;14.10;99.90
4564;DHT22;2294;51.818;8.484;2023-04-25T13:54:41;13.70;99.90
4564;DHT22;2294;51.818;8.484;2023-04-25T13:57:08;12.60;99.90
4564;DHT22;2294;51.818;8.484;2023-04-25T13:59:36;13.20;99.90
4564;DHT22;2294;51.818;8.484;2023-04-25T14:02:04;14.20;99.90
4564;DHT22;2294;51.818;8.484;2023-04-25T14:04:31;14.20;99.90
4564;DHT22;2294;51.818;8.484;2023-04-25T14:06:58;14.20;99.90
4564;DHT22;2294;51.818;8.484;2023-04-25T14:09:25;13.70;99.90
4564;DHT22;2294;51.818;8.484;2023-04-25T14:11:52;10.20;99.90
4564;DHT22;2294;51.818;8.484;2023-04-25T14:14:20;9.80;99.90
4564;DHT22;2294;51.818;8.484;2023-04-25T14:16:47;9.50;99.90
4564;DHT22;2294;51.818;8.484;2023-04-25T14:19:16;9.90;99.90
4564;DHT22;2294;51.818;8.484;2023-04-25T14:21:42;9.40;99.90
4564;DHT22;2294;51.818;8.484;2023-04-25T14:24:10;9.40;99.90
4564;DHT22;2294;51.818;8.484;2023-04-25T14:26:37;9.20;99.90
4564;DHT22;2294;51.818;8.484;2023-04-25T14:29:05;9.40;99.90
4564;DHT22;2294;51.818;8.484;2023-04-25T14:31:34;9.40;99.90
4564;DHT22;2294;51.818;8.484;2023-04-25T14:34:02;9.40;99.90
4564;DHT22;2294;51.818;8.484;2023-04-25T14:36:30;9.20;99.90
4564;DHT22;2294;51.818;8.484;2023-04-25T14:38:57;9.10;99.90
4564;DHT22;2294;51.818;8.484;2023-04-25T14:41:25;8.70;99.90
4564;DHT22;2294;51.818;8.484;2023-04-25T14:43:52;8.70;99.90
4564;DHT22;2294;51.818;8.484;2023-04-25T14:46:20;8.70;99.90
4564;DHT22;2294;51.818;8.484;2023-04-25T14:48:47;8.40;99.90
4564;DHT22;2294;51.818;8.484;2023-04-25T14:51:14;8.70;99.90
4564;DHT22;2294;51.818;8.484;2023-04-25T14:53:42;8.30;99.90
4564;DHT22;2294;51.818;8.484;2023-04-25T14:56:09;8.30;99.90
4564;DHT22;2294;51.818;8.484;2023-04-25T15:01:04;8.20;99.90
4564;DHT22;2294;51.818;8.484;2023-04-25T15:03:32;8.20;99.90
4564;DHT22;2294;51.818;8.484;2023-04-25T15:05:59;7.90;99.90
4564;DHT22;2294;51.818;8.484;2023-04-25T15:08:26;7.80;99.90
4564;DHT22;2294;51.818;8.484;2023-04-25T15:10:54;8.10;99.90
4564;DHT22;2294;51.818;8.484;2023-04-25T15:13:21;7.70;99.90
4564;DHT22;2294;51.818;8.484;2023-04-25T15:15:48;8.40;99.90
4564;DHT22;2294;51.818;8.484;2023-04-25T15:18:16;9.00;99.90
4564;DHT22;2294;51.818;8.484;2023-04-25T15:20:43;9.60;99.90
4564;DHT22;2294;51.818;8.484;2023-04-25T15:23:11;10.40;99.90
4564;DHT22;2294;51.818;8.484;2023-04-25T15:25:38;12.40;99.90
4564;DHT22;2294;51.818;8.484;2023-04-25T15:28:06;14.50;99.90
4564;DHT22;2294;51.818;8.484;2023-04-25T15:30:33;13.50;99.90
4564;DHT22;2294;51.818;8.484;2023-04-25T15:33:00;16.00;99.90
4564;DHT22;2294;51.818;8.484;2023-04-25T15:35:27;18.80;99.90
4564;DHT22;2294;51.818;8.484;2023-04-25T15:37:54;20.00;99.90
4564;DHT22;2294;51.818;8.484;2023-04-25T15:40:21;20.30;99.90
4564;DHT22;2294;51.818;8.484;2023-04-25T15:42:49;17.50;99.90
4564;DHT22;2294;51.818;8.484;2023-04-25T15:45:19;18.30;99.90
4564;DHT22;2294;51.818;8.484;2023-04-25T15:47:46;16.30;99.90
4564;DHT22;2294;51.818;8.484;2023-04-25T15:50:13;13.90;99.90
4564;DHT22;2294;51.818;8.484;2023-04-25T15:52:40;15.70;99.90
4564;DHT22;2294;51.818;8.484;2023-04-25T15:55:08;12.50;99.90
4564;DHT22;2294;51.818;8.484;2023-04-25T15:57:36;10.20;99.90
4564;DHT22;2294;51.818;8.484;2023-04-25T16:00:04;10.90;99.90
4564;DHT22;2294;51.818;8.484;2023-04-25T16:02:36;10.70;99.90
4564;DHT22;2294;51.818;8.484;2023-04-25T16:05:04;10.00;99.90
4564;DHT22;2294;51.818;8.484;2023-04-25T16:07:31;9.80;99.90
4564;DHT22;2294;51.818;8.484;2023-04-25T16:09:58;9.20;99.90
4564;DHT22;2294;51.818;8.484;2023-04-25T16:12:24;8.80;99.90
4564;DHT22;2294;51.818;8.484;2023-04-25T16:14:53;8.50;99.90
4564;DHT22;2294;51.818;8.484;2023-04-25T16:17:19;8.20;99.90
4564;DHT22;2294;51.818;8.484;2023-04-25T16:19:48;7.80;99.90
4564;DHT22;2294;51.818;8.484;2023-04-25T16:22:15;7.70;99.90
4564;DHT22;2294;51.818;8.484;2023-04-25T16:24:42;7.80;99.90